Latest  Newer  Older  Last 2 hours slideshow  Last 24 hours slideshow  Refresh every 5 minutes 
Current image  Latest image  Rain/snow radar  Cloud coverage sat images 

All time is UTC (add 2 hours to UTC in wintertime, 3 hours to UTC in DST for Latvia local time)

2021/01/28 04:50 EVRA 280450Z 24003KT 200V290 9999 OVC026 M01/M03 Q1005 R18/390195 NOSIG
2021/01/28 04:50 EVLA 280450Z AUTO 13007KT 3000 -SN FEW005/// BKN010/// OVC017/// M01/M01 Q1003
2021/01/28 04:50 EVVA 280450Z AUTO 12004KT 9999 OVC036 M00/M01 Q1004
2021/01/28 04:50 EYKA 280450Z 29003KT 240V300 9999 OVC024 M02/M07 Q1006 R08/290095
2021/01/28 04:50 EYPA 280450Z 17006KT 9999 OVC027 00/M00 Q1004
2021/01/28 04:50 EYSA 280450Z VRB02KT 9999 OVC019 M02/M05 Q1005 R14L/29//95 R14R/29//95 WHT NOSIG
2021/01/28 04:50 EYVI 280450Z 31005KT 9999 OVC018 M02/M05 Q1005 R01/5/0294 NOSIG
2021/01/28 04:20 EEKA 280420Z 25003KT 210V280 9999 OVC027 M02/M04 Q1004
2021/01/28 04:20 EEKE 280420Z AUTO 00000KT 9999NDV FEW022 OVC027 M01/M02 Q1004



   RIGA AIRPORT     EVRA               56 55N  023 58E   10   X     T          6 LV
   LIEPAJA INTL     EVLA        26406  56 31N  021 06E    4   X                8 LV
   VENTPILS         EVVA               57 21N  021 33E    6   X                8 LV
   KAUNAS           EYKA               54 54N  023 55E   77   X     T          6 LT
   PALANGA INTL     EYPA               55 55N  021 03E   10   X                6 LT
   SIAULIAI INTL    EYSA               55 54N  023 24E  135   X     T          6 LT
   VILNIUS INTL     EYVI        26730  54 38N  025 17E  197   X     T          6 LT
   KARDLA           EEKA        26116  58 59N  022 50E    4   X                8 EE
   KURESSAARE       EEKE               58 14N  022 31E    4   X                8 EE
   PARNU            EEPU               58 25N  024 28E   14   X                8 EE
   TALLINN          EETN        26038  59 24N  024 49E   40   X     T          8 EE
   TARTU            EETU               58 19N  026 41E   67   X                8 EE